Time;durP1;ratioP1;P1;durP2;ratioP2;P2;SDS_P1;SDS_P2;PMS_P1;PMS_P2;Temp;Humidity;BMP_temperature;BMP_pressure;BME280_temperature;BME280_humidity;BME280_pressure;Samples;Min_cycle;Max_cycle;Signal;HPM_P1;HPM_P2
2021/11/21 00:00:46;;;;;;;42.55;30.13;;;9.90;89.90;;;;;;5053635;28;20027;-73
2021/11/21 00:03:11;;;;;;;51.38;33.38;;;9.90;90.00;;;;;;5054290;28;20028;-82
2021/11/21 00:05:44;;;;;;;44.60;32.13;;;9.90;89.90;;;;;;5072568;28;20406;-82
2021/11/21 00:08:12;;;;;;;40.40;29.02;;;9.90;89.90;;;;;;5051664;28;20480;-82
2021/11/21 00:10:38;;;;;;;42.45;30.10;;;9.80;89.90;;;;;;5038459;28;20024;-82
2021/11/21 00:13:05;;;;;;;38.55;27.52;;;9.80;90.00;;;;;;5053875;28;20055;-73
2021/11/21 00:15:31;;;;;;;40.40;26.73;;;9.90;90.00;;;;;;5053353;28;20513;-82
2021/11/21 00:17:57;;;;;;;37.15;27.13;;;9.90;90.00;;;;;;5077046;28;20032;-83
2021/11/21 00:20:23;;;;;;;39.10;28.17;;;9.90;89.80;;;;;;5086663;28;20081;-73
2021/11/21 00:22:49;;;;;;;42.92;29.88;;;9.90;89.90;;;;;;5082842;28;20025;-72
2021/11/21 00:25:15;;;;;;;38.75;27.65;;;9.90;89.90;;;;;;5068786;28;20043;-73
2021/11/21 00:27:40;;;;;;;37.63;26.80;;;9.90;89.90;;;;;;5090156;28;20425;-82
2021/11/21 00:30:07;;;;;;;39.72;28.95;;;9.90;89.70;;;;;;5090508;28;20493;-81
2021/11/21 00:32:32;;;;;;;37.00;27.33;;;9.90;89.80;;;;;;5088608;28;20063;-82
2021/11/21 00:34:59;;;;;;;37.78;27.77;;;9.90;89.90;;;;;;5067706;28;20052;-81
2021/11/21 00:37:27;;;;;;;37.58;27.88;;;9.90;90.00;;;;;;5088116;28;20040;-81
2021/11/21 00:39:53;;;;;;;43.08;27.23;;;9.80;90.00;;;;;;5074926;28;20031;-81
2021/11/21 00:42:19;;;;;;;36.47;26.40;;;9.80;89.90;;;;;;5082738;28;20367;-82
2021/11/21 00:44:45;;;;;;;35.80;24.98;;;9.80;89.90;;;;;;5089900;28;20028;-81
2021/11/21 00:47:11;;;;;;;30.35;23.10;;;9.80;89.90;;;;;;5070667;28;20028;-82
2021/11/21 00:49:37;;;;;;;33.88;25.50;;;9.80;89.90;;;;;;5072999;28;20106;-82
2021/11/21 00:52:04;;;;;;;35.20;25.42;;;9.80;90.00;;;;;;5073172;28;20063;-82
2021/11/21 00:57:08;;;;;;;30.08;22.88;;;9.80;90.00;;;;;;5091217;28;20032;-82
2021/11/21 00:59:34;;;;;;;34.35;24.00;;;9.80;90.00;;;;;;5056670;28;20017;-82
2021/11/21 01:02:06;;;;;;;30.70;23.13;;;9.80;90.00;;;;;;5091274;28;20024;-82
2021/11/21 01:04:31;;;;;;;33.30;24.60;;;9.80;90.00;;;;;;5074258;28;20115;-82
2021/11/21 01:06:57;;;;;;;35.10;25.50;;;9.80;90.00;;;;;;5071814;28;20127;-73
2021/11/21 01:09:24;;;;;;;38.05;26.92;;;9.80;90.00;;;;;;5090354;28;20036;-72
2021/11/21 01:11:50;;;;;;;38.50;25.98;;;9.80;90.00;;;;;;5076252;28;20044;-83
2021/11/21 01:14:16;;;;;;;38.10;27.83;;;9.80;90.00;;;;;;5089189;28;20032;-82
2021/11/21 01:16:42;;;;;;;38.20;27.85;;;9.80;90.00;;;;;;5070078;28;20034;-82
2021/11/21 01:19:08;;;;;;;40.15;28.10;;;9.80;90.00;;;;;;5071944;28;20122;-82
2021/11/21 01:21:34;;;;;;;40.25;28.83;;;9.70;90.10;;;;;;5090189;28;20119;-82
2021/11/21 01:24:00;;;;;;;43.40;30.05;;;9.70;90.40;;;;;;5055175;28;20028;-82
2021/11/21 01:26:27;;;;;;;49.53;32.35;;;9.80;90.10;;;;;;5070911;28;20080;-82
2021/11/21 01:28:53;;;;;;;41.28;28.23;;;9.80;90.10;;;;;;5090581;28;20478;-72
2021/11/21 01:31:19;;;;;;;44.35;28.73;;;9.70;90.10;;;;;;5089845;28;20020;-73
2021/11/21 01:33:45;;;;;;;41.97;29.20;;;9.70;90.20;;;;;;5071790;28;20035;-72
2021/11/21 01:36:10;;;;;;;39.67;27.38;;;9.70;90.20;;;;;;5071194;28;20028;-73
2021/11/21 01:38:37;;;;;;;38.38;26.58;;;9.70;90.20;;;;;;5090023;28;20020;-72
2021/11/21 01:41:03;;;;;;;36.08;25.58;;;9.80;90.20;;;;;;5084098;28;20469;-82
2021/11/21 01:43:29;;;;;;;37.97;26.17;;;9.80;90.20;;;;;;5091444;28;20065;-83
2021/11/21 01:45:55;;;;;;;40.30;29.58;;;9.80;90.20;;;;;;5089025;28;20559;-82
2021/11/21 01:48:21;;;;;;;39.03;27.08;;;9.80;90.10;;;;;;5051548;28;20064;-82
2021/11/21 01:50:47;;;;;;;40.50;27.55;;;9.80;90.20;;;;;;5089165;28;20068;-82
2021/11/21 01:53:13;;;;;;;38.10;27.45;;;9.70;90.10;;;;;;5071731;28;20402;-82
2021/11/21 01:55:40;;;;;;;40.15;27.42;;;9.70;90.10;;;;;;5089215;28;20339;-82
2021/11/21 01:58:07;;;;;;;35.95;26.35;;;9.70;90.10;;;;;;5094448;28;20016;-82
2021/11/21 02:00:37;;;;;;;39.33;27.67;;;9.70;90.10;;;;;;5110269;28;20406;-82
2021/11/21 02:03:03;;;;;;;39.90;27.63;;;9.70;90.20;;;;;;5090717;28;20028;-82
2021/11/21 02:05:29;;;;;;;43.10;29.38;;;9.80;90.50;;;;;;5072195;28;20489;-82
2021/11/21 02:07:55;;;;;;;41.55;29.50;;;9.80;90.20;;;;;;5069874;28;20039;-82
2021/11/21 02:10:23;;;;;;;42.47;29.38;;;9.80;90.10;;;;;;5069718;28;20028;-83
2021/11/21 02:12:49;;;;;;;40.20;27.90;;;9.80;90.10;;;;;;5093857;28;20016;-83
2021/11/21 02:15:17;;;;;;;44.25;28.92;;;9.80;90.20;;;;;;5093442;28;20024;-83
2021/11/21 02:17:43;;;;;;;42.10;28.60;;;9.70;90.20;;;;;;5067772;28;20043;-82
2021/11/21 02:20:14;;;;;;;38.05;25.92;;;9.70;90.10;;;;;;5091570;28;20457;-83
2021/11/21 02:22:41;;;;;;;46.20;30.13;;;9.70;90.20;;;;;;5078357;28;20016;-83
2021/11/21 02:25:08;;;;;;;48.53;31.30;;;9.80;90.20;;;;;;5050523;28;20904;-83
2021/11/21 02:27:34;;;;;;;44.10;30.33;;;9.80;90.20;;;;;;5085677;28;20103;-83
2021/11/21 02:29:59;;;;;;;42.53;28.58;;;9.70;90.20;;;;;;5060569;28;20116;-83
2021/11/21 02:32:26;;;;;;;47.70;30.17;;;9.80;90.50;;;;;;5090612;28;20032;-83
2021/11/21 02:34:51;;;;;;;44.40;29.88;;;9.80;90.20;;;;;;5086585;28;20048;-83
2021/11/21 02:37:17;;;;;;;45.38;29.67;;;9.80;90.30;;;;;;5091751;28;20062;-83
2021/11/21 02:39:43;;;;;;;46.03;31.35;;;9.80;90.30;;;;;;5092605;28;20671;-83
2021/11/21 02:42:22;;;;;;;48.13;30.88;;;9.80;90.20;;;;;;5075747;28;20024;-83
2021/11/21 02:44:48;;;;;;;44.95;29.40;;;9.80;90.30;;;;;;5075353;28;20028;-83
2021/11/21 02:47:14;;;;;;;46.03;29.63;;;9.80;90.30;;;;;;5093456;28;20497;-82
2021/11/21 02:49:39;;;;;;;49.40;32.03;;;9.70;90.30;;;;;;5093689;28;20145;-83
2021/11/21 02:52:05;;;;;;;51.00;34.17;;;9.70;90.30;;;;;;5092720;28;20048;-83
2021/11/21 02:54:31;;;;;;;49.95;31.67;;;9.70;90.40;;;;;;5087998;28;20477;-83
2021/11/21 02:56:57;;;;;;;58.10;34.50;;;9.70;90.40;;;;;;5094354;28;20469;-83
2021/11/21 02:59:27;;;;;;;55.90;33.25;;;9.70;90.40;;;;;;5090675;28;20405;-83
2021/11/21 03:01:53;;;;;;;51.08;31.20;;;9.70;90.40;;;;;;5073621;28;20036;-83
2021/11/21 03:04:25;;;;;;;49.22;31.40;;;9.70;90.50;;;;;;5074397;28;20360;-84
2021/11/21 03:06:50;;;;;;;46.22;30.35;;;9.70;90.50;;;;;;5092455;28;20043;-83
2021/11/21 03:09:23;;;;;;;53.72;31.98;;;9.70;90.50;;;;;;5075496;28;20036;-84
2021/11/21 03:11:52;;;;;;;44.83;28.77;;;9.70;90.50;;;;;;5075577;28;21564;-83
2021/11/21 03:14:19;;;;;;;51.90;31.98;;;9.70;90.40;;;;;;5075390;28;20073;-83
2021/11/21 03:16:48;;;;;;;66.45;35.65;;;9.70;90.40;;;;;;5092290;28;20022;-83
2021/11/21 03:19:14;;;;;;;50.38;32.10;;;9.70;90.40;;;;;;5093069;28;20580;-84
2021/11/21 03:21:40;;;;;;;54.53;32.95;;;9.70;90.40;;;;;;5091989;28;20052;-83
2021/11/21 03:24:06;;;;;;;50.15;30.48;;;9.70;90.40;;;;;;5092405;28;20046;-83
2021/11/21 03:26:32;;;;;;;54.33;31.98;;;9.60;90.40;;;;;;5091624;28;20032;-83
2021/11/21 03:28:58;;;;;;;53.70;33.22;;;9.70;90.50;;;;;;5088257;28;20028;-83
2021/11/21 03:31:23;;;;;;;54.83;33.28;;;9.70;90.50;;;;;;5055593;28;20090;-83
2021/11/21 03:33:49;;;;;;;52.78;30.88;;;9.70;90.50;;;;;;5074188;28;20036;-83
2021/11/21 03:36:15;;;;;;;55.03;32.28;;;9.70;90.50;;;;;;5091655;28;20031;-83
2021/11/21 03:38:40;;;;;;;49.83;30.02;;;9.70;90.50;;;;;;5091742;28;20399;-83
2021/11/21 03:41:06;;;;;;;48.55;30.48;;;9.70;90.50;;;;;;5073389;28;20039;-83
2021/11/21 03:43:32;;;;;;;54.38;32.00;;;9.70;90.50;;;;;;5073835;28;20032;-83
2021/11/21 03:45:58;;;;;;;56.72;33.10;;;9.70;90.50;;;;;;5073196;28;20035;-83
2021/11/21 03:48:24;;;;;;;51.05;31.15;;;9.70;90.50;;;;;;5091950;28;20030;-83
2021/11/21 03:50:50;;;;;;;58.60;33.80;;;9.70;90.50;;;;;;5091408;28;20032;-83
2021/11/21 03:53:17;;;;;;;53.65;32.55;;;9.70;90.50;;;;;;5073860;28;20385;-83
2021/11/21 03:55:43;;;;;;;58.40;32.38;;;9.70;90.50;;;;;;5072625;28;20028;-83
2021/11/21 03:58:09;;;;;;;53.83;31.70;;;9.70;90.60;;;;;;5086101;28;20102;-83
2021/11/21 04:00:35;;;;;;;51.72;31.33;;;9.70;90.60;;;;;;5069851;28;20491;-83
2021/11/21 04:03:02;;;;;;;48.75;28.98;;;9.70;90.50;;;;;;5067579;28;20024;-83
2021/11/21 04:05:27;;;;;;;53.00;31.27;;;9.70;90.60;;;;;;5084924;28;20393;-83
2021/11/21 04:07:53;;;;;;;49.95;29.83;;;9.70;90.60;;;;;;5060152;28;20032;-83
2021/11/21 04:10:20;;;;;;;46.42;28.42;;;9.70;90.60;;;;;;5064584;28;20012;-83
2021/11/21 04:12:46;;;;;;;47.10;28.73;;;9.70;90.60;;;;;;5082467;28;20519;-83
2021/11/21 04:15:12;;;;;;;43.50;27.95;;;9.70;90.60;;;;;;5085471;28;20020;-83
2021/11/21 04:17:38;;;;;;;44.00;27.33;;;9.70;90.60;;;;;;5080323;28;20059;-83
2021/11/21 04:20:05;;;;;;;40.55;25.02;;;9.70;90.60;;;;;;5067875;28;20490;-83
2021/11/21 04:22:31;;;;;;;45.05;27.45;;;9.70;90.70;;;;;;5082768;28;20394;-83
2021/11/21 04:24:57;;;;;;;47.17;27.27;;;9.70;90.60;;;;;;5065594;28;20462;-84
2021/11/21 04:27:26;;;;;;;43.40;25.73;;;9.70;90.60;;;;;;5062012;28;20036;-84
2021/11/21 04:29:56;;;;;;;44.05;26.23;;;9.60;90.60;;;;;;5090513;28;20111;-83
2021/11/21 04:32:22;;;;;;;44.60;25.98;;;9.60;90.70;;;;;;5074333;28;20039;-84
2021/11/21 04:34:48;;;;;;;39.78;24.30;;;9.70;90.70;;;;;;5090998;28;20530;-83
2021/11/21 04:37:14;;;;;;;37.22;24.15;;;9.70;90.70;;;;;;5091515;28;20143;-83
2021/11/21 04:39:40;;;;;;;46.03;25.27;;;9.70;90.70;;;;;;5091107;28;20031;-83
2021/11/21 04:42:05;;;;;;;38.33;23.73;;;9.70;90.70;;;;;;5091632;28;20104;-74
2021/11/21 04:44:31;;;;;;;37.00;23.95;;;9.70;90.70;;;;;;5090939;28;20081;-73
2021/11/21 04:46:57;;;;;;;33.58;21.45;;;9.70;90.80;;;;;;5072012;28;20343;-73
2021/11/21 04:49:22;;;;;;;32.15;21.45;;;9.70;90.80;;;;;;5088198;28;20089;-74
2021/11/21 04:51:48;;;;;;;33.50;21.33;;;9.80;90.80;;;;;;5090050;28;20024;-74
2021/11/21 04:54:18;;;;;;;35.17;21.63;;;9.80;90.70;;;;;;5055014;28;20043;-74
2021/11/21 04:56:46;;;;;;;34.67;21.83;;;9.80;90.70;;;;;;5072378;28;20032;-74
2021/11/21 04:59:13;;;;;;;27.13;18.73;;;9.80;90.70;;;;;;5072387;28;20038;-73
2021/11/21 05:01:39;;;;;;;31.40;19.48;;;9.80;90.70;;;;;;5090304;28;20115;-74
2021/11/21 05:04:05;;;;;;;32.85;20.50;;;9.80;90.70;;;;;;5090115;28;20035;-82
2021/11/21 05:06:31;;;;;;;29.08;18.90;;;9.80;90.60;;;;;;5089924;28;20028;-82
2021/11/21 05:08:57;;;;;;;30.42;18.30;;;9.90;90.70;;;;;;5072273;28;20115;-74
2021/11/21 05:11:22;;;;;;;25.45;17.75;;;9.90;90.70;;;;;;5090376;28;20042;-74
2021/11/21 05:13:48;;;;;;;27.02;17.17;;;9.90;90.60;;;;;;5072570;28;20116;-74
2021/11/21 05:16:14;;;;;;;22.48;16.25;;;9.90;90.60;;;;;;5089930;28;20043;-73
2021/11/21 05:18:40;;;;;;;23.48;16.40;;;10.00;90.60;;;;;;5090337;28;20058;-74
2021/11/21 05:21:05;;;;;;;22.17;14.43;;;10.00;90.60;;;;;;5072248;28;20036;-74
2021/11/21 05:23:31;;;;;;;21.73;14.98;;;10.00;90.50;;;;;;5072682;28;20081;-73
2021/11/21 05:25:56;;;;;;;18.00;12.82;;;10.00;90.50;;;;;;5089614;28;20486;-73
2021/11/21 05:28:22;;;;;;;20.85;14.38;;;10.10;90.50;;;;;;5072277;28;20040;-74
2021/11/21 05:30:50;;;;;;;20.17;13.82;;;10.10;90.50;;;;;;5080922;28;20035;-74
2021/11/21 05:33:16;;;;;;;18.15;13.05;;;10.10;90.40;;;;;;5069300;28;20557;-83
2021/11/21 05:35:42;;;;;;;17.23;12.75;;;10.20;90.40;;;;;;5070120;28;20425;-74
2021/11/21 05:38:08;;;;;;;16.25;11.63;;;10.10;90.40;;;;;;5070006;28;20032;-74
2021/11/21 05:40:34;;;;;;;18.23;12.43;;;10.20;90.40;;;;;;5089767;28;20035;-83
2021/11/21 05:43:00;;;;;;;17.20;12.32;;;10.20;90.40;;;;;;5087900;28;20027;-73
2021/11/21 05:45:27;;;;;;;17.40;12.32;;;10.20;90.30;;;;;;5057484;28;20421;-73
2021/11/21 05:47:53;;;;;;;17.77;12.15;;;10.20;90.30;;;;;;5087473;28;20032;-73
2021/11/21 05:50:18;;;;;;;18.80;12.13;;;10.20;90.30;;;;;;5086665;28;20042;-73
2021/11/21 05:52:47;;;;;;;16.65;11.45;;;10.20;90.30;;;;;;5081947;28;20031;-83
2021/11/21 05:55:15;;;;;;;17.35;11.55;;;10.20;90.30;;;;;;5088689;28;20050;-82
2021/11/21 05:57:40;;;;;;;17.00;12.45;;;10.20;90.30;;;;;;5077608;28;20103;-83
2021/11/21 06:00:10;;;;;;;16.70;12.18;;;10.20;90.30;;;;;;5091772;28;20119;-83
2021/11/21 06:02:35;;;;;;;14.95;11.15;;;10.20;90.30;;;;;;5089878;28;20080;-83
2021/11/21 06:05:01;;;;;;;18.23;12.07;;;10.30;90.30;;;;;;5092017;28;20040;-83
2021/11/21 06:07:27;;;;;;;16.13;12.00;;;10.20;90.20;;;;;;5072809;28;20037;-83
2021/11/21 06:09:53;;;;;;;16.30;11.98;;;10.30;90.20;;;;;;5086904;28;20032;-83
2021/11/21 06:12:18;;;;;;;17.25;11.93;;;10.30;90.20;;;;;;5086202;28;20031;-82
2021/11/21 06:14:44;;;;;;;16.52;11.75;;;10.30;90.20;;;;;;5080247;28;20123;-82
2021/11/21 06:17:10;;;;;;;15.90;11.73;;;10.30;90.20;;;;;;5076795;28;20093;-82
2021/11/21 06:19:35;;;;;;;18.05;12.13;;;10.30;90.20;;;;;;5066633;28;20100;-84
2021/11/21 06:22:05;;;;;;;16.05;11.68;;;10.30;90.10;;;;;;5072932;28;20540;-82
2021/11/21 06:24:30;;;;;;;15.65;11.43;;;10.30;90.10;;;;;;5093949;28;20035;-82
2021/11/21 06:26:57;;;;;;;16.52;12.35;;;10.30;90.10;;;;;;5086804;28;20032;-82
2021/11/21 06:29:23;;;;;;;16.40;11.45;;;10.30;90.10;;;;;;5078836;28;20047;-72
2021/11/21 06:31:50;;;;;;;18.38;11.45;;;10.30;90.10;;;;;;5094085;28;20035;-72
2021/11/21 06:34:16;;;;;;;13.85;10.52;;;10.30;90.10;;;;;;5067962;28;20111;-72
2021/11/21 06:36:42;;;;;;;16.45;10.60;;;10.30;90.10;;;;;;5088883;28;20036;-73
2021/11/21 06:39:08;;;;;;;15.18;10.20;;;10.30;90.10;;;;;;5069485;28;20039;-72
2021/11/21 06:41:37;;;;;;;15.63;10.55;;;10.30;90.10;;;;;;5087435;28;20043;-72
2021/11/21 06:44:04;;;;;;;14.88;11.02;;;10.30;90.10;;;;;;5070631;28;20044;-81
2021/11/21 06:46:30;;;;;;;16.23;9.90;;;10.30;90.00;;;;;;5074008;28;20056;-73
2021/11/21 06:48:56;;;;;;;14.93;10.15;;;10.30;90.00;;;;;;5093952;28;20028;-73
2021/11/21 06:51:22;;;;;;;14.18;9.20;;;10.30;90.00;;;;;;5077109;28;20146;-81
2021/11/21 06:53:49;;;;;;;15.30;9.48;;;10.30;90.00;;;;;;5093511;28;20031;-83
2021/11/21 06:56:16;;;;;;;14.25;8.80;;;10.30;90.00;;;;;;5092314;28;20372;-72
2021/11/21 06:58:42;;;;;;;13.82;9.05;;;10.30;90.00;;;;;;5093821;28;20590;-74
2021/11/21 07:01:08;;;;;;;12.35;8.82;;;10.20;90.00;;;;;;5079852;28;20060;-74
2021/11/21 07:03:34;;;;;;;11.27;8.38;;;10.20;90.00;;;;;;5091795;28;20035;-72
2021/11/21 07:06:00;;;;;;;11.65;7.72;;;10.30;90.10;;;;;;5094718;28;20020;-73
2021/11/21 07:08:25;;;;;;;12.02;7.85;;;10.30;90.10;;;;;;5102360;28;20036;-81
2021/11/21 07:10:51;;;;;;;11.40;7.65;;;10.30;90.10;;;;;;5089536;28;20024;-81
2021/11/21 07:13:17;;;;;;;10.98;6.63;;;10.30;90.10;;;;;;5075324;28;20028;-83
2021/11/21 07:15:42;;;;;;;10.32;6.53;;;10.30;90.10;;;;;;5093187;28;20028;-82
2021/11/21 07:18:08;;;;;;;9.52;6.80;;;10.30;90.10;;;;;;5079381;28;20036;-82
2021/11/21 07:20:34;;;;;;;12.02;6.78;;;10.30;90.10;;;;;;5080995;28;20031;-82
2021/11/21 07:23:00;;;;;;;8.52;6.20;;;10.30;90.00;;;;;;5077070;28;20092;-81
2021/11/21 07:25:26;;;;;;;9.90;6.18;;;10.30;90.00;;;;;;5075841;28;20107;-80
2021/11/21 07:27:53;;;;;;;9.65;5.72;;;10.30;90.00;;;;;;5080826;28;20024;-73
2021/11/21 07:30:21;;;;;;;9.23;6.30;;;10.30;90.00;;;;;;5053116;28;20041;-76
2021/11/21 07:32:48;;;;;;;9.18;5.55;;;10.30;90.00;;;;;;5079915;28;20023;-76
2021/11/21 07:35:17;;;;;;;11.20;6.03;;;10.40;90.00;;;;;;5079423;28;20024;-76
2021/11/21 07:37:43;;;;;;;7.78;5.90;;;10.30;90.00;;;;;;5073913;28;20760;-76
2021/11/21 07:40:10;;;;;;;10.48;5.63;;;10.30;90.00;;;;;;5059874;28;20035;-76
2021/11/21 07:42:37;;;;;;;7.20;5.35;;;10.30;90.00;;;;;;5057514;28;20126;-75
2021/11/21 07:45:08;;;;;;;7.25;4.82;;;10.40;90.00;;;;;;5079459;28;20364;-71
2021/11/21 07:47:34;;;;;;;6.68;4.85;;;10.30;90.00;;;;;;5073646;28;20416;-73
2021/11/21 07:50:00;;;;;;;10.02;5.05;;;10.30;90.00;;;;;;5075638;28;20032;-71
2021/11/21 07:52:26;;;;;;;9.75;5.60;;;10.30;90.00;;;;;;5053291;28;20435;-71
2021/11/21 07:54:52;;;;;;;8.27;5.20;;;10.30;90.00;;;;;;5070742;28;20056;-71
2021/11/21 07:57:18;;;;;;;11.75;5.28;;;10.30;90.00;;;;;;5078032;28;20377;-74
2021/11/21 07:59:44;;;;;;;9.63;4.35;;;10.30;90.00;;;;;;5078091;28;20494;-71
2021/11/21 08:02:11;;;;;;;6.07;4.13;;;10.30;90.00;;;;;;5077842;28;20056;-71
2021/11/21 08:04:36;;;;;;;7.70;4.38;;;10.30;90.00;;;;;;5077008;28;20032;-74
2021/11/21 08:07:02;;;;;;;9.60;4.30;;;10.30;90.00;;;;;;5055389;28;20033;-74
2021/11/21 08:09:28;;;;;;;6.78;4.30;;;10.30;90.20;;;;;;5049950;28;20048;-74
2021/11/21 08:11:54;;;;;;;8.55;3.75;;;10.30;89.90;;;;;;5072619;28;20044;-75
2021/11/21 08:14:20;;;;;;;7.63;2.88;;;10.30;89.90;;;;;;5057374;28;20029;-74
2021/11/21 08:16:47;;;;;;;7.68;3.50;;;10.30;89.80;;;;;;5060325;28;20413;-74
2021/11/21 08:19:13;;;;;;;6.03;3.15;;;10.30;89.70;;;;;;5107549;28;20492;-72
2021/11/21 08:21:39;;;;;;;6.25;2.85;;;10.30;89.70;;;;;;5099088;28;20145;-74
2021/11/21 08:24:09;;;;;;;8.57;3.08;;;10.30;89.80;;;;;;5094913;28;20035;-73
2021/11/21 08:26:35;;;;;;;8.23;3.03;;;10.30;89.80;;;;;;5074065;28;20064;-72
2021/11/21 08:29:02;;;;;;;6.20;2.65;;;10.30;89.80;;;;;;5090475;28;20103;-73
2021/11/21 08:31:28;;;;;;;9.50;3.08;;;10.30;89.80;;;;;;5043133;28;20036;-72
2021/11/21 08:33:55;;;;;;;9.30;3.38;;;10.40;89.70;;;;;;5088663;28;20052;-74
2021/11/21 08:36:22;;;;;;;7.53;2.92;;;10.40;89.80;;;;;;5087726;28;20027;-76
2021/11/21 08:38:47;;;;;;;5.60;2.30;;;10.40;89.70;;;;;;5090940;28;20028;-76
2021/11/21 08:41:13;;;;;;;7.97;2.38;;;10.40;89.70;;;;;;5086041;28;20374;-76
2021/11/21 08:43:39;;;;;;;8.18;2.90;;;10.40;89.70;;;;;;5091105;28;20081;-74
2021/11/21 08:46:05;;;;;;;6.95;2.15;;;10.40;89.70;;;;;;5064540;28;20436;-75
2021/11/21 08:48:31;;;;;;;5.80;1.90;;;10.40;89.70;;;;;;5072620;28;20060;-71
2021/11/21 08:50:57;;;;;;;7.57;2.25;;;10.40;89.60;;;;;;5054822;28;20040;-71
2021/11/21 08:53:23;;;;;;;7.38;2.22;;;10.50;89.50;;;;;;5080397;28;20024;-76
2021/11/21 08:55:49;;;;;;;5.30;2.00;;;10.50;89.60;;;;;;5068180;28;20035;-76
2021/11/21 08:58:15;;;;;;;10.57;2.00;;;10.50;89.40;;;;;;5083126;28;20031;-76
2021/11/21 09:00:40;;;;;;;8.85;2.10;;;10.50;89.30;;;;;;5072584;28;20051;-72
2021/11/21 09:03:06;;;;;;;5.38;1.83;;;10.50;89.30;;;;;;5072041;28;20044;-72
2021/11/21 09:05:32;;;;;;;9.65;2.22;;;10.50;89.10;;;;;;5089606;28;20465;-72
2021/11/21 09:07:58;;;;;;;9.13;1.90;;;10.50;89.00;;;;;;5071405;28;20044;-72
2021/11/21 09:10:24;;;;;;;11.43;2.03;;;10.50;88.90;;;;;;5071576;28;20036;-71
2021/11/21 09:12:49;;;;;;;11.10;2.00;;;10.50;89.00;;;;;;5071475;28;20509;-72
2021/11/21 09:15:18;;;;;;;10.38;1.60;;;10.50;88.90;;;;;;5089358;28;20023;-72
2021/11/21 09:17:50;;;;;;;7.32;1.52;;;10.60;88.90;;;;;;5087201;28;20123;-71
2021/11/21 09:20:16;;;;;;;12.82;1.95;;;10.60;88.70;;;;;;5088240;28;20032;-72
2021/11/21 09:22:42;;;;;;;9.52;1.70;;;10.60;88.40;;;;;;5089835;28;20107;-72
2021/11/21 09:25:09;;;;;;;9.07;1.63;;;10.60;88.40;;;;;;5070849;28;20253;-76
2021/11/21 09:27:36;;;;;;;7.60;1.95;;;10.60;88.00;;;;;;5090326;28;20093;-77
2021/11/21 09:30:04;;;;;;;6.88;1.83;;;10.60;88.10;;;;;;5091033;28;20040;-76
2021/11/21 09:32:30;;;;;;;6.10;1.25;;;10.60;88.10;;;;;;5088212;28;20490;-71
2021/11/21 09:34:55;;;;;;;7.47;1.50;;;10.50;87.90;;;;;;5086774;28;20104;-72
2021/11/21 09:37:21;;;;;;;7.55;1.88;;;10.60;87.90;;;;;;5063416;28;20059;-71
2021/11/21 09:39:47;;;;;;;8.82;1.67;;;10.50;87.90;;;;;;5069226;28;20040;-77
2021/11/21 09:42:14;;;;;;;8.20;1.73;;;10.60;88.10;;;;;;5088391;28;20426;-72
2021/11/21 09:44:40;;;;;;;8.05;1.83;;;10.60;87.90;;;;;;5085106;28;20032;-72
2021/11/21 09:47:06;;;;;;;8.43;1.60;;;10.60;87.70;;;;;;5084968;28;20040;-72
2021/11/21 09:49:31;;;;;;;7.82;1.67;;;10.50;87.60;;;;;;5059541;28;20109;-71
2021/11/21 09:51:57;;;;;;;10.05;1.77;;;10.60;87.60;;;;;;5089334;28;20105;-72
2021/11/21 09:54:27;;;;;;;7.00;1.63;;;10.60;87.60;;;;;;5086294;28;20104;-73
2021/11/21 09:56:53;;;;;;;10.23;2.20;;;10.60;87.50;;;;;;5050563;28;20024;-73
2021/11/21 10:00:01;;;;;;;10.20;1.88;;;10.60;87.00;;;;;;5088260;28;20043;-72
2021/11/21 10:02:31;;;;;;;7.10;1.70;;;10.60;87.00;;;;;;5061728;28;20047;-77
2021/11/21 10:05:03;;;;;;;9.50;2.10;;;10.60;86.90;;;;;;5088210;28;20502;-77
2021/11/21 10:07:32;;;;;;;10.75;2.17;;;10.60;86.70;;;;;;5089019;28;20028;-72
2021/11/21 10:10:00;;;;;;;9.45;1.42;;;10.60;86.60;;;;;;5092638;28;20760;-73
2021/11/21 10:12:41;;;;;;;6.38;1.35;;;10.60;86.40;;;;;;5087439;28;20021;-72
2021/11/21 10:15:17;;;;;;;10.73;2.28;;;10.60;86.30;;;;;;5090077;28;20024;-77
2021/11/21 10:17:46;;;;;;;10.07;1.67;;;10.60;86.30;;;;;;5087633;28;20044;-77
2021/11/21 10:20:22;;;;;;;10.73;1.70;;;10.60;86.20;;;;;;5087445;28;20103;-77
2021/11/21 10:23:03;;;;;;;10.18;2.17;;;10.60;85.90;;;;;;5088545;28;20020;-76
2021/11/21 10:25:32;;;;;;;8.45;1.83;;;10.60;85.70;;;;;;5087556;28;20043;-72
2021/11/21 10:28:12;;;;;;;7.40;1.60;;;10.60;85.30;;;;;;5088125;28;20032;-71
2021/11/21 10:30:57;;;;;;;11.13;2.08;;;10.50;85.10;;;;;;5088838;28;20028;-72
2021/11/21 10:33:28;;;;;;;9.02;2.00;;;10.50;85.30;;;;;;5073691;28;20043;-72
2021/11/21 10:36:18;;;;;;;9.95;2.03;;;10.50;85.20;;;;;;5092331;28;20528;-71
2021/11/21 10:38:54;;;;;;;9.82;1.58;;;10.60;85.00;;;;;;5091793;28;20406;-71
2021/11/21 10:41:28;;;;;;;5.03;1.38;;;10.50;84.90;;;;;;5091987;28;20024;-71
2021/11/21 10:44:15;;;;;;;7.65;1.65;;;10.60;85.00;;;;;;5090999;28;20038;-73
2021/11/21 10:46:45;;;;;;;6.25;1.35;;;10.60;85.00;;;;;;5082458;28;20487;-72
2021/11/21 10:49:16;;;;;;;11.07;1.90;;;10.60;84.80;;;;;;5069696;28;20101;-72
2021/11/21 10:51:44;;;;;;;7.13;1.48;;;10.70;84.50;;;;;;5066059;28;20513;-72
2021/11/21 10:54:24;;;;;;;8.98;1.73;;;10.70;83.90;;;;;;5094558;28;20024;-77
2021/11/21 10:56:56;;;;;;;6.63;1.60;;;10.70;83.90;;;;;;5073620;28;20027;-76
2021/11/21 10:59:51;;;;;;;8.27;1.60;;;10.90;84.20;;;;;;5075339;28;20039;-75
2021/11/21 11:02:19;;;;;;;11.63;1.98;;;11.70;84.90;;;;;;5064096;28;20469;-76
2021/11/21 11:05:11;;;;;;;10.65;1.80;;;13.80;78.60;;;;;;5073724;28;20064;-76
2021/11/21 11:07:41;;;;;;;10.50;1.83;;;;;;;;;;5089100;28;20032;-78
2021/11/21 11:16:14;;;;;;;6.72;1.70;;;19.80;59.40;;;;;;5117436;27;20124;-76
2021/11/21 11:18:39;;;;;;;8.57;1.92;;;19.60;58.70;;;;;;5102464;28;20721;-70
2021/11/21 11:21:07;;;;;;;5.93;1.98;;;19.90;58.20;;;;;;5104282;28;20026;-71
2021/11/21 11:23:33;;;;;;;7.55;1.90;;;20.50;56.00;;;;;;5087888;28;20028;-70
2021/11/21 11:35:56;;;;;;;8.43;1.65;;;23.00;48.50;;;;;;5123644;27;20117;-70
2021/11/21 11:38:28;;;;;;;7.07;1.80;;;22.90;48.90;;;;;;5099462;28;20051;-70
2021/11/21 11:41:02;;;;;;;4.25;1.63;;;23.10;49.00;;;;;;5077237;28;20070;-70
2021/11/21 11:43:35;;;;;;;6.95;2.00;;;23.60;46.30;;;;;;5098515;28;20024;-70
2021/11/21 11:48:45;;;;;;;6.88;1.88;;;24.20;45.40;;;;;;5126853;27;20359;-70
2021/11/21 11:51:48;;;;;;;6.47;2.22;;;23.90;45.90;;;;;;5096667;28;20027;-70
2021/11/21 11:54:19;;;;;;;5.20;1.83;;;23.70;45.00;;;;;;5100003;28;20035;-78
2021/11/21 11:56:47;;;;;;;6.53;1.80;;;23.40;45.00;;;;;;5101145;28;20024;-70
2021/11/21 11:59:34;;;;;;;5.25;1.95;;;23.10;45.40;;;;;;5106946;28;20032;-70
2021/11/21 12:02:11;;;;;;;8.65;2.80;;;22.50;46.70;;;;;;5105689;28;20027;-70
2021/11/21 12:04:36;;;;;;;7.95;2.10;;;22.80;46.60;;;;;;5101915;28;20081;-70
2021/11/21 12:07:25;;;;;;;5.38;1.42;;;23.30;44.00;;;;;;5106109;28;20549;-70
2021/11/21 12:10:22;;;;;;;5.18;1.60;;;23.30;43.90;;;;;;5089635;28;20051;-70
2021/11/21 12:13:33;;;;;;;4.70;1.38;;;22.80;43.20;;;;;;5104699;28;20577;-71
2021/11/21 12:16:01;;;;;;;5.70;1.55;;;21.60;45.80;;;;;;5097728;28;20028;-71
2021/11/21 12:18:55;;;;;;;7.00;1.42;;;20.50;47.60;;;;;;5106615;28;20059;-71
2021/11/21 12:21:42;;;;;;;4.50;1.30;;;19.50;49.90;;;;;;5098302;28;20501;-71
2021/11/21 12:24:18;;;;;;;6.60;1.65;;;18.80;51.50;;;;;;5106317;28;20470;-71
2021/11/21 12:26:44;;;;;;;3.25;1.42;;;17.90;51.90;;;;;;5093333;28;20031;-71
2021/11/21 12:29:18;;;;;;;7.68;1.23;;;17.60;53.20;;;;;;5094967;28;20675;-71
2021/11/21 12:31:47;;;;;;;3.88;1.13;;;17.70;53.50;;;;;;5088891;28;20360;-71
2021/11/21 12:34:34;;;;;;;8.07;1.60;;;17.70;53.80;;;;;;5082214;28;20433;-71
2021/11/21 12:37:19;;;;;;;4.65;1.02;;;17.80;53.60;;;;;;5106200;28;20032;-71
2021/11/21 12:39:51;;;;;;;4.07;1.02;;;17.40;54.20;;;;;;5105286;28;20016;-71
2021/11/21 12:42:23;;;;;;;4.32;1.20;;;16.90;55.40;;;;;;5106193;28;20024;-79
2021/11/21 12:44:49;;;;;;;5.22;1.27;;;16.40;56.80;;;;;;5103088;28;20016;-79
2021/11/21 12:47:15;;;;;;;6.10;1.33;;;16.10;57.40;;;;;;5106068;28;20486;-81
2021/11/21 12:49:43;;;;;;;4.70;1.30;;;16.10;57.60;;;;;;5093657;28;20108;-80
2021/11/21 12:52:12;;;;;;;7.90;2.08;;;16.10;56.90;;;;;;5113432;28;20069;-80
2021/11/21 12:54:39;;;;;;;6.93;1.75;;;15.80;56.90;;;;;;5110606;28;20023;-80
2021/11/21 12:57:06;;;;;;;4.32;1.23;;;15.50;58.60;;;;;;5097176;28;20016;-80
2021/11/21 12:59:51;;;;;;;5.28;1.15;;;15.30;59.70;;;;;;5081082;28;20032;-78
2021/11/21 13:02:21;;;;;;;4.03;1.10;;;15.00;59.80;;;;;;5091527;28;20039;-79
2021/11/21 13:04:53;;;;;;;6.22;1.30;;;14.90;61.10;;;;;;5078480;28;20060;-79
2021/11/21 13:07:22;;;;;;;4.30;1.25;;;15.10;61.10;;;;;;5092161;28;20352;-70